KSLB/SLB METAR and TAF weather

Enter ICAO airport designator
Station Type Date Time Source
KSLB METAR 2019/08/25 18:15 UTC NOAA

KSLB 251815Z AUTO 14007KT 10SM BKN018 OVC023 20/17 A2991 RMK AO2


Station Type Date Time Source
KSLB Decoded METAR 2019/08/25 18:15 UTC NOAA

Station name not available
Aug 25, 2019 - 02:15 PM EDT / 2019.08.25 1815 UTC
Wind: from the SE (140 degrees) at 8 MPH (7 KT):0
Visibility: 10 mile(s):0
Sky conditions: overcast
Temperature: 68 F (20 C)
Dew Point: 62 F (17 C)
Relative Humidity: 82%
Pressure (altimeter): 29.91 in. Hg (1012 hPa)
ob: KSLB 251815Z AUTO 14007KT 10SM BKN018 OVC023 20/17 A2991 RMK AO2
cycle: 18

Station Type Date Time Source
KSLB TAF UTC NOAA

Error!

Example: see airport list